This is the latest recevied weather packets stored in our database for station/object EA4BCR. If no packets are shown the sender has not sent any weather packets the latest 10 day(s).
| Time | Temp. | Humidity | Pressure | Rain* | Wind** | Luminosity | Snow |
|---|---|---|---|---|---|---|---|
| 1787498410 | 32.22° C | 30% | 1009.1 hPa | - | - | - | - |
| 1787497810 | 32.22° C | 28% | 1009.1 hPa | - | - | - | - |
| 1787497210 | 32.22° C | 30% | 1009.2 hPa | - | - | - | - |
| 1787496610 | 31.67° C | 33% | 1009.7 hPa | - | - | - | - |
| 1787496010 | 31.67° C | 32% | 1009.6 hPa | - | - | - | - |
| 1787495410 | 31.67° C | 31% | 1009.5 hPa | - | - | - | - |
| 1787494810 | 31.11° C | 32% | 1010 hPa | - | - | - | - |
| 1787494210 | 32.78° C | 29% | 1009.6 hPa | - | - | - | - |
| 1787493610 | 32.22° C | 30% | 1009.8 hPa | - | - | - | - |
| 1787493011 | 31.67° C | 30% | 1010.1 hPa | - | - | - | - |
| 1787492410 | 32.22° C | 29% | 1010.1 hPa | - | - | - | - |
| 1787491810 | 31.67° C | 32% | 1010.2 hPa | - | - | - | - |
| 1787491210 | 31.67° C | 30% | 1010.3 hPa | - | - | - | - |
| 1787490610 | 31.67° C | 30% | 1010.5 hPa | - | - | - | - |
| 1787490010 | 31.11° C | 31% | 1010.7 hPa | - | - | - | - |
| 1787489410 | 30.56° C | 36% | 1011.1 hPa | - | - | - | - |
| 1787488810 | 31.67° C | 34% | 1010.7 hPa | - | - | - | - |
| 1787488210 | 31.11° C | 37% | 1010.8 hPa | - | - | - | - |
| 1787487610 | 31.11° C | 37% | 1010.9 hPa | - | - | - | - |
| 1787487010 | 30.56° C | 37% | 1011.1 hPa | - | - | - | - |
| 1787486410 | 30° C | 38% | 1011.5 hPa | - | - | - | - |
| 1787485810 | 28.89° C | 39% | 1011.8 hPa | - | - | - | - |
| 1787485210 | 28.89° C | 39% | 1012 hPa | - | - | - | - |
| 1787484610 | 30.56° C | 39% | 1011.5 hPa | - | - | - | - |
| 1787484010 | 30.56° C | 39% | 1011.7 hPa | - | - | - | - |
* Rain since midnight (hover to see other rain measurements)
** Current wind speed in m/s (hover to see current wind gust speed)